createdAt,value
2018-05-07T00:01:24.794Z,70.30
2018-05-07T00:03:51.120Z,70.30
2018-05-07T00:06:17.644Z,69.50
2018-05-07T00:08:43.840Z,69.90
2018-05-07T00:11:13.803Z,70.70
2018-05-07T00:13:40.121Z,71.10
2018-05-07T00:16:07.152Z,72.70
2018-05-07T00:18:33.493Z,72.60
2018-05-07T00:21:02.892Z,73.50
2018-05-07T00:23:29.176Z,73.00
2018-05-07T00:25:55.475Z,74.90
2018-05-07T00:28:21.871Z,76.50
2018-05-07T00:30:48.246Z,75.70
2018-05-07T00:33:14.797Z,74.70
2018-05-07T00:35:41.015Z,74.30
2018-05-07T00:38:08.030Z,77.30
2018-05-07T00:40:34.400Z,77.30
2018-05-07T00:43:00.707Z,72.10
2018-05-07T00:45:27.148Z,74.10
2018-05-07T00:47:53.711Z,73.90
2018-05-07T00:50:20.043Z,73.60
2018-05-07T00:52:46.379Z,73.00
2018-05-07T00:55:17.415Z,77.40
2018-05-07T00:57:43.764Z,75.80
2018-05-07T01:00:10.192Z,73.30
2018-05-07T01:02:36.544Z,76.60
2018-05-07T01:05:02.890Z,76.50
2018-05-07T01:07:29.215Z,73.90
2018-05-07T01:09:55.541Z,75.20
2018-05-07T01:12:21.860Z,76.50
2018-05-07T01:14:48.204Z,74.40
2018-05-07T01:17:14.621Z,74.80
2018-05-07T01:19:40.973Z,74.10
2018-05-07T01:22:07.257Z,74.40
2018-05-07T01:24:34.333Z,74.50
2018-05-07T01:27:00.725Z,75.00
2018-05-07T01:29:27.001Z,76.90
2018-05-07T01:31:54.223Z,78.00
2018-05-07T01:34:20.518Z,77.40
2018-05-07T01:36:47.667Z,78.10
2018-05-07T01:39:14.736Z,74.10
2018-05-07T01:41:41.051Z,74.00
2018-05-07T01:44:07.401Z,73.90
2018-05-07T01:46:33.764Z,74.30
2018-05-07T01:49:00.079Z,74.60
2018-05-07T01:51:26.471Z,78.00
2018-05-07T01:53:54.600Z,77.30
2018-05-07T01:56:20.913Z,77.20
2018-05-07T01:58:47.968Z,74.50
2018-05-07T02:01:15.045Z,74.30
2018-05-07T02:03:41.553Z,74.30
2018-05-07T02:06:07.850Z,75.40
2018-05-07T02:08:34.254Z,77.50
2018-05-07T02:11:01.385Z,75.70
2018-05-07T02:13:27.662Z,75.60
2018-05-07T02:15:56.310Z,74.90
2018-05-07T02:18:23.705Z,74.80
2018-05-07T02:20:50.007Z,74.50
2018-05-07T02:23:16.452Z,76.50
2018-05-07T02:25:42.806Z,75.20
2018-05-07T02:28:09.115Z,76.70
2018-05-07T02:30:36.142Z,78.40
2018-05-07T02:33:02.538Z,78.40
2018-05-07T02:35:28.943Z,78.90
2018-05-07T02:37:56.013Z,80.40
2018-05-07T02:40:22.347Z,80.30
2018-05-07T02:42:48.654Z,75.60
2018-05-07T02:45:14.980Z,75.80
2018-05-07T02:47:41.437Z,76.70
2018-05-07T02:50:07.711Z,75.80
2018-05-07T02:52:34.053Z,82.30
2018-05-07T02:55:00.409Z,78.60
2018-05-07T02:57:27.473Z,77.80
2018-05-07T02:59:54.626Z,76.60
2018-05-07T03:02:20.928Z,76.60
2018-05-07T03:04:47.236Z,75.80
2018-05-07T03:07:14.298Z,78.10
2018-05-07T03:09:40.575Z,77.90
2018-05-07T03:12:07.048Z,83.60
2018-05-07T03:14:33.279Z,79.30
2018-05-07T03:16:59.793Z,76.40
2018-05-07T03:19:26.250Z,76.60
2018-05-07T03:21:52.565Z,76.20
2018-05-07T03:24:19.046Z,76.50
2018-05-07T03:26:45.410Z,76.40
2018-05-07T03:29:11.853Z,76.70
2018-05-07T03:31:38.162Z,77.80
2018-05-07T03:34:04.509Z,76.90
2018-05-07T03:36:30.843Z,76.60
2018-05-07T03:38:57.168Z,76.80
2018-05-07T03:41:23.514Z,77.20
2018-05-07T03:43:49.823Z,77.10
2018-05-07T03:46:16.155Z,77.40
2018-05-07T03:48:42.513Z,77.80
2018-05-07T03:51:09.647Z,78.20
2018-05-07T03:53:36.000Z,78.10
2018-05-07T03:56:02.339Z,77.90
2018-05-07T03:58:28.676Z,78.10
2018-05-07T04:00:55.067Z,78.40
2018-05-07T04:03:21.411Z,79.80
2018-05-07T04:05:48.681Z,82.30
2018-05-07T04:08:15.783Z,76.90
2018-05-07T04:10:42.136Z,76.80
2018-05-07T04:13:08.592Z,76.10
2018-05-07T04:15:34.928Z,76.60
2018-05-07T04:18:13.459Z,76.10
2018-05-07T04:20:51.972Z,77.00
2018-05-07T04:23:30.542Z,76.90
2018-05-07T04:25:57.522Z,76.80
2018-05-07T04:28:23.906Z,76.70
2018-05-07T04:30:50.379Z,76.50
2018-05-07T04:33:26.541Z,80.50
2018-05-07T04:35:53.842Z,79.20
2018-05-07T04:38:21.140Z,75.60
2018-05-07T04:40:47.524Z,75.60
2018-05-07T04:43:13.974Z,75.40
2018-05-07T04:45:41.077Z,76.10
2018-05-07T04:48:08.542Z,76.10
2018-05-07T04:50:35.607Z,76.70
2018-05-07T04:53:02.675Z,77.30
2018-05-07T04:55:29.801Z,79.20
2018-05-07T04:57:56.188Z,79.20
2018-05-07T05:00:22.532Z,78.10
2018-05-07T05:02:48.861Z,78.10
2018-05-07T05:05:15.959Z,76.10
2018-05-07T05:07:42.336Z,76.10
2018-05-07T05:10:08.713Z,76.80
2018-05-07T05:12:35.907Z,77.10
2018-05-07T05:15:07.399Z,77.10
2018-05-07T05:17:33.827Z,77.40
2018-05-07T05:20:00.134Z,75.90
2018-05-07T05:22:27.265Z,73.80
2018-05-07T05:24:53.617Z,73.80
2018-05-07T05:27:19.924Z,73.90
2018-05-07T05:29:46.347Z,73.30
2018-05-07T05:32:12.659Z,72.50
2018-05-07T05:34:39.031Z,72.10
2018-05-07T05:37:06.609Z,71.00
2018-05-07T05:39:32.902Z,69.70
2018-05-07T05:41:59.252Z,69.10
2018-05-07T05:44:25.561Z,69.40
2018-05-07T05:46:53.889Z,70.30
2018-05-07T05:49:20.279Z,70.90
2018-05-07T05:51:46.643Z,71.40
2018-05-07T05:54:13.039Z,73.30
2018-05-07T05:56:40.108Z,69.80
2018-05-07T05:59:06.503Z,69.70
2018-05-07T06:01:32.938Z,69.80
2018-05-07T06:03:59.319Z,71.00
2018-05-07T06:06:26.542Z,71.80
2018-05-07T06:08:52.984Z,71.70
2018-05-07T06:11:19.351Z,70.20
2018-05-07T06:13:45.759Z,68.80
2018-05-07T06:16:12.235Z,68.10
2018-05-07T06:18:39.261Z,66.00
2018-05-07T06:21:05.813Z,66.20
2018-05-07T06:23:33.112Z,64.70
2018-05-07T06:25:59.532Z,64.20
2018-05-07T06:28:25.922Z,64.40
2018-05-07T06:30:53.012Z,56.30
2018-05-07T06:33:19.526Z,56.30
2018-05-07T06:35:45.920Z,53.50
2018-05-07T06:38:12.249Z,50.20
2018-05-07T06:40:38.699Z,48.70
2018-05-07T06:43:05.090Z,47.80
2018-05-07T06:45:31.701Z,47.50
2018-05-07T06:48:16.395Z,47.20
2018-05-07T06:50:42.791Z,46.30
2018-05-07T06:53:09.864Z,43.20
2018-05-07T06:55:36.292Z,43.10
2018-05-07T06:58:02.614Z,45.00
2018-05-07T07:00:28.959Z,44.70
2018-05-07T07:02:55.424Z,43.70
2018-05-07T07:05:22.448Z,43.00
2018-05-07T07:07:48.751Z,42.90
2018-05-07T07:10:15.029Z,41.40
2018-05-07T07:12:41.399Z,41.40
2018-05-07T07:15:12.085Z,42.90
2018-05-07T07:17:38.395Z,41.90
2018-05-07T07:20:05.491Z,41.60
2018-05-07T07:22:31.820Z,41.50
2018-05-07T07:24:58.901Z,40.30
2018-05-07T07:27:25.163Z,40.30
2018-05-07T07:29:51.502Z,40.50
2018-05-07T07:32:17.845Z,41.60
2018-05-07T07:34:44.217Z,41.00
2018-05-07T07:37:10.567Z,41.10
2018-05-07T07:39:37.794Z,42.00
2018-05-07T07:42:06.742Z,42.00
2018-05-07T07:44:33.120Z,40.70
2018-05-07T07:47:00.209Z,42.00
2018-05-07T07:49:26.495Z,42.00
2018-05-07T07:51:52.792Z,41.30
2018-05-07T07:54:19.119Z,41.10
2018-05-07T07:56:45.428Z,40.60
2018-05-07T07:59:12.506Z,40.20
2018-05-07T08:01:39.632Z,39.80
2018-05-07T08:04:05.905Z,39.70
2018-05-07T08:06:33.063Z,41.50
2018-05-07T08:08:59.582Z,41.50
2018-05-07T08:11:25.946Z,40.50
2018-05-07T08:13:52.304Z,40.30
2018-05-07T08:16:18.629Z,39.70
2018-05-07T08:18:44.965Z,38.30
2018-05-07T08:21:12.132Z,38.80
2018-05-07T08:23:38.524Z,38.80
2018-05-07T08:26:04.957Z,40.30
2018-05-07T08:28:31.340Z,38.90
2018-05-07T08:30:58.503Z,38.80
2018-05-07T08:33:25.028Z,38.80
2018-05-07T08:35:51.473Z,38.00
2018-05-07T08:38:17.781Z,37.00
2018-05-07T08:40:44.881Z,38.00
2018-05-07T08:43:12.360Z,37.80
2018-05-07T08:45:38.729Z,37.80
2018-05-07T08:48:05.108Z,36.40
2018-05-07T08:50:32.193Z,38.20
2018-05-07T08:52:58.663Z,38.10
2018-05-07T08:55:24.958Z,36.40
2018-05-07T08:57:52.079Z,38.10
2018-05-07T09:00:18.530Z,38.10
2018-05-07T09:02:44.915Z,37.10
2018-05-07T09:05:11.962Z,36.30
2018-05-07T09:07:39.032Z,35.50
2018-05-07T09:10:06.224Z,37.20
2018-05-07T09:12:32.565Z,37.20
2018-05-07T09:14:58.905Z,37.60
2018-05-07T09:17:25.480Z,37.10
2018-05-07T09:19:51.879Z,37.60
2018-05-07T09:22:18.958Z,39.00
2018-05-07T09:24:45.375Z,39.00
2018-05-07T09:27:11.694Z,38.00
2018-05-07T09:29:37.985Z,38.30
2018-05-07T09:32:04.289Z,37.90
2018-05-07T09:34:30.609Z,38.50
2018-05-07T09:36:56.932Z,38.80
2018-05-07T09:39:23.218Z,38.20
2018-05-07T09:41:49.664Z,37.60
2018-05-07T09:44:15.948Z,38.90
2018-05-07T09:46:42.284Z,39.80
2018-05-07T09:49:08.591Z,38.80
2018-05-07T09:51:34.918Z,38.30
2018-05-07T09:54:01.206Z,37.50
2018-05-07T09:56:27.540Z,38.30
2018-05-07T09:58:56.633Z,37.10
2018-05-07T10:01:23.606Z,37.10
2018-05-07T10:03:50.661Z,37.90
2018-05-07T10:06:17.733Z,36.30
2018-05-07T10:08:45.502Z,36.10
2018-05-07T10:11:12.555Z,35.60
2018-05-07T10:13:39.699Z,37.60
2018-05-07T10:16:06.901Z,36.70
2018-05-07T10:18:33.552Z,36.70
2018-05-07T10:21:00.101Z,37.30
2018-05-07T10:23:26.604Z,35.90
2018-05-07T10:25:53.030Z,33.70
2018-05-07T10:28:19.512Z,34.00
2018-05-07T10:30:46.102Z,36.00
2018-05-07T10:33:14.287Z,36.20
2018-05-07T10:35:40.651Z,36.10
2018-05-07T10:38:07.063Z,36.90
2018-05-07T10:40:33.553Z,36.90
2018-05-07T10:43:00.077Z,36.60
2018-05-07T10:45:26.507Z,34.20
2018-05-07T10:47:53.005Z,35.20
2018-05-07T10:50:19.419Z,35.40
2018-05-07T10:52:45.891Z,34.10
2018-05-07T10:55:12.319Z,34.40
2018-05-07T10:57:38.657Z,35.10
2018-05-07T11:00:05.039Z,36.20
2018-05-07T11:02:31.365Z,34.20
2018-05-07T11:04:57.712Z,35.60
2018-05-07T11:07:24.074Z,36.90
2018-05-07T11:09:50.496Z,35.50
2018-05-07T11:12:16.853Z,34.60
2018-05-07T11:14:43.558Z,35.90
2018-05-07T11:17:09.947Z,35.20
2018-05-07T11:19:36.278Z,33.20
2018-05-07T11:22:02.653Z,33.40
2018-05-07T11:24:29.693Z,31.50
2018-05-07T11:26:56.020Z,31.50
2018-05-07T11:29:22.319Z,33.60
2018-05-07T11:31:48.656Z,32.70
2018-05-07T11:34:15.724Z,30.00
2018-05-07T11:36:42.235Z,30.00
2018-05-07T11:39:08.701Z,32.80
2018-05-07T11:41:34.993Z,33.10
2018-05-07T11:44:01.614Z,28.50
2018-05-07T11:46:28.091Z,28.40
2018-05-07T11:48:54.457Z,28.20
2018-05-07T11:51:21.608Z,27.90
2018-05-07T11:53:47.946Z,27.90
2018-05-07T11:56:14.999Z,29.00
2018-05-07T11:58:41.600Z,29.00
2018-05-07T12:01:08.012Z,28.20
2018-05-07T12:03:34.366Z,28.80
2018-05-07T12:06:00.757Z,28.80
2018-05-07T12:08:27.562Z,30.80
2018-05-07T12:10:53.902Z,29.90
2018-05-07T12:13:21.131Z,27.20
2018-05-07T12:15:47.469Z,27.80
2018-05-07T12:18:14.542Z,25.80
2018-05-07T12:20:40.968Z,25.80
2018-05-07T12:23:07.334Z,28.10
2018-05-07T12:25:33.650Z,29.20
2018-05-07T12:27:59.954Z,29.00
2018-05-07T12:30:26.337Z,28.90
2018-05-07T12:32:52.710Z,29.00
2018-05-07T12:35:19.240Z,28.80
2018-05-07T12:37:45.631Z,26.60
2018-05-07T12:40:12.618Z,28.30
2018-05-07T12:42:39.696Z,28.00
2018-05-07T12:45:06.131Z,28.00
2018-05-07T12:47:33.328Z,28.20
2018-05-07T12:49:59.613Z,28.20
2018-05-07T12:52:25.991Z,28.80
2018-05-07T12:54:52.370Z,28.00
2018-05-07T12:57:18.684Z,27.10
2018-05-07T12:59:45.041Z,28.20
2018-05-07T13:02:11.904Z,28.60
2018-05-07T13:04:38.277Z,29.30
2018-05-07T13:07:04.587Z,30.00
2018-05-07T13:09:30.972Z,31.30
2018-05-07T13:11:57.330Z,31.00
2018-05-07T13:14:23.812Z,31.20
2018-05-07T13:16:50.566Z,32.80
2018-05-07T13:19:16.953Z,32.90
2018-05-07T13:21:43.396Z,32.40
2018-05-07T13:24:09.770Z,31.30
2018-05-07T13:26:36.191Z,31.10
2018-05-07T13:29:02.640Z,31.50
2018-05-07T13:31:29.200Z,32.90
2018-05-07T13:33:56.336Z,32.90
2018-05-07T13:36:22.800Z,32.20
2018-05-07T13:38:49.180Z,32.70
2018-05-07T13:41:15.679Z,32.70
2018-05-07T13:43:43.007Z,32.80
2018-05-07T13:46:10.358Z,32.70
2018-05-07T13:48:36.729Z,32.80
2018-05-07T13:51:03.918Z,33.50
2018-05-07T13:53:31.042Z,32.80
2018-05-07T13:55:57.385Z,32.70
2018-05-07T13:58:23.782Z,33.20
2018-05-07T14:00:50.109Z,33.40
2018-05-07T14:03:16.451Z,32.60
2018-05-07T14:05:42.823Z,33.00
2018-05-07T14:08:09.942Z,32.50
2018-05-07T14:10:36.383Z,32.50
2018-05-07T14:13:02.741Z,33.30
2018-05-07T14:15:29.284Z,33.50
2018-05-07T14:17:55.690Z,33.60
2018-05-07T14:20:22.031Z,33.50
2018-05-07T14:22:48.468Z,33.80
2018-05-07T14:25:15.617Z,34.50
2018-05-07T14:27:42.038Z,34.40
2018-05-07T14:30:08.495Z,34.90
2018-05-07T14:32:35.076Z,34.30
2018-05-07T14:35:01.491Z,34.20
2018-05-07T14:37:27.888Z,34.20
2018-05-07T14:39:54.369Z,33.90
2018-05-07T14:42:20.850Z,34.10
2018-05-07T14:44:47.991Z,34.60
2018-05-07T14:47:14.330Z,34.50
2018-05-07T14:49:40.942Z,34.70
2018-05-07T14:52:07.290Z,34.50
2018-05-07T14:54:33.599Z,34.20
2018-05-07T14:57:00.762Z,33.70
2018-05-07T14:59:27.106Z,33.60
2018-05-07T15:01:53.448Z,34.60
2018-05-07T15:04:20.603Z,32.70
2018-05-07T15:06:47.721Z,32.20
2018-05-07T15:09:14.067Z,32.20
2018-05-07T15:11:40.449Z,32.90
2018-05-07T15:14:23.093Z,33.20
2018-05-07T15:16:49.440Z,33.30
2018-05-07T15:19:15.780Z,33.90
2018-05-07T15:21:42.515Z,33.50
2018-05-07T15:24:08.882Z,32.90
2018-05-07T15:26:35.239Z,33.10
2018-05-07T15:29:01.599Z,33.40
2018-05-07T15:31:28.076Z,33.50
2018-05-07T15:33:54.419Z,34.10
2018-05-07T15:36:20.852Z,33.70
2018-05-07T15:38:47.205Z,34.60
2018-05-07T15:41:13.674Z,34.70
2018-05-07T15:43:42.857Z,34.70
2018-05-07T15:46:09.352Z,34.70
2018-05-07T15:48:36.423Z,35.20
2018-05-07T15:51:02.799Z,35.10
2018-05-07T15:53:29.257Z,35.60
2018-05-07T15:55:55.664Z,37.00
2018-05-07T15:58:22.108Z,35.90
2018-05-07T16:00:48.474Z,34.80
2018-05-07T16:03:14.993Z,34.00
2018-05-07T16:05:41.317Z,35.00
2018-05-07T16:08:08.421Z,35.30
2018-05-07T16:10:34.768Z,35.20
2018-05-07T16:13:01.939Z,35.60
2018-05-07T16:15:28.372Z,36.00
2018-05-07T16:17:54.742Z,36.20
2018-05-07T16:20:21.110Z,36.10
2018-05-07T16:22:48.209Z,35.90
2018-05-07T16:25:14.476Z,35.90
2018-05-07T16:27:40.703Z,35.80
2018-05-07T16:30:06.954Z,36.60
2018-05-07T16:32:33.188Z,37.00
2018-05-07T16:34:59.396Z,37.80
2018-05-07T16:37:25.684Z,36.90
2018-05-07T16:39:51.895Z,36.80
2018-05-07T16:42:18.124Z,37.60
2018-05-07T16:44:44.398Z,37.30
2018-05-07T16:47:10.606Z,37.40
2018-05-07T16:49:36.822Z,37.10
2018-05-07T16:52:03.247Z,37.40
2018-05-07T16:54:29.508Z,38.00
2018-05-07T16:56:57.206Z,36.50
2018-05-07T16:59:23.494Z,36.40
2018-05-07T17:01:50.485Z,37.60
2018-05-07T17:04:16.707Z,38.20
2018-05-07T17:06:42.981Z,37.20
2018-05-07T17:09:09.955Z,37.40
2018-05-07T17:11:36.246Z,37.40
2018-05-07T17:14:02.484Z,36.90
2018-05-07T17:16:32.554Z,37.80
2018-05-07T17:18:59.742Z,38.10
2018-05-07T17:21:25.976Z,38.00
2018-05-07T17:23:52.225Z,37.70
2018-05-07T17:26:19.461Z,38.00
2018-05-07T17:28:45.927Z,38.10
2018-05-07T17:31:12.216Z,38.60
2018-05-07T17:33:39.531Z,39.10
2018-05-07T17:36:05.748Z,39.00
2018-05-07T17:38:32.849Z,39.40
2018-05-07T17:40:59.874Z,39.40
2018-05-07T17:43:26.858Z,39.80
2018-05-07T17:46:05.752Z,39.80
2018-05-07T17:48:44.242Z,39.10
2018-05-07T17:51:10.528Z,39.50
2018-05-07T17:53:36.821Z,39.90
2018-05-07T17:56:06.275Z,39.60
2018-05-07T17:58:33.516Z,39.90
2018-05-07T18:00:59.768Z,40.60
2018-05-07T18:03:26.771Z,40.80
2018-05-07T18:05:53.789Z,41.00
2018-05-07T18:08:20.732Z,41.50
2018-05-07T18:10:47.020Z,41.50
2018-05-07T18:13:13.268Z,41.60
2018-05-07T18:15:40.236Z,41.30
2018-05-07T18:18:07.240Z,41.60
2018-05-07T18:20:33.528Z,41.50
2018-05-07T18:23:00.593Z,42.30
2018-05-07T18:25:27.586Z,42.80
2018-05-07T18:27:53.803Z,42.80
2018-05-07T18:30:20.764Z,42.60
2018-05-07T18:32:47.067Z,42.60
2018-05-07T18:35:13.426Z,42.40
2018-05-07T18:37:39.635Z,42.80
2018-05-07T18:40:05.907Z,42.90
2018-05-07T18:42:36.409Z,43.30
2018-05-07T18:45:02.670Z,43.30
2018-05-07T18:47:28.897Z,43.40
2018-05-07T18:49:55.235Z,43.30
2018-05-07T18:52:21.476Z,43.10
2018-05-07T18:54:47.789Z,43.40
2018-05-07T18:57:15.127Z,43.80
2018-05-07T18:59:42.308Z,43.70
2018-05-07T19:02:08.599Z,43.60
2018-05-07T19:04:34.870Z,43.60
2018-05-07T19:07:01.137Z,43.70
2018-05-07T19:09:27.465Z,43.60
2018-05-07T19:11:54.475Z,44.30
2018-05-07T19:14:20.809Z,44.30
2018-05-07T19:16:47.011Z,44.80
2018-05-07T19:19:14.024Z,45.40
2018-05-07T19:21:40.300Z,45.40
2018-05-07T19:24:06.578Z,45.40
2018-05-07T19:26:33.556Z,45.50
2018-05-07T19:28:59.816Z,45.40
2018-05-07T19:31:26.038Z,45.30
2018-05-07T19:33:52.276Z,45.90
2018-05-07T19:36:18.479Z,45.70
2018-05-07T19:38:45.464Z,45.50
2018-05-07T19:41:11.806Z,45.50
2018-05-07T19:43:38.089Z,45.70
2018-05-07T19:46:04.312Z,45.80
2018-05-07T19:48:30.639Z,46.30
2018-05-07T19:50:56.864Z,45.80
2018-05-07T19:53:27.366Z,45.30
2018-05-07T19:55:53.597Z,45.90
2018-05-07T19:58:20.836Z,47.00
2018-05-07T20:00:47.214Z,46.10
2018-05-07T20:03:13.579Z,49.20
2018-05-07T20:05:40.629Z,47.60
2018-05-07T20:08:06.883Z,46.60
2018-05-07T20:10:33.863Z,49.40
2018-05-07T20:13:00.158Z,49.40
2018-05-07T20:15:26.414Z,47.10
2018-05-07T20:17:52.722Z,46.40
2018-05-07T20:20:19.011Z,46.70
2018-05-07T20:22:45.237Z,46.90
2018-05-07T20:25:11.505Z,46.40
2018-05-07T20:27:38.483Z,47.30
2018-05-07T20:30:04.750Z,47.30
2018-05-07T20:32:30.998Z,46.50
2018-05-07T20:34:57.209Z,46.20
2018-05-07T20:37:24.256Z,47.20
2018-05-07T20:39:50.523Z,47.20
2018-05-07T20:42:16.731Z,49.90
2018-05-07T20:44:43.074Z,49.50
2018-05-07T20:47:09.302Z,49.40
2018-05-07T20:49:36.286Z,50.40
2018-05-07T20:52:02.521Z,50.40
2018-05-07T20:54:28.765Z,52.40
2018-05-07T20:56:54.985Z,53.30
2018-05-07T20:59:21.252Z,54.30
2018-05-07T21:01:47.574Z,54.20
2018-05-07T21:04:14.570Z,52.20
2018-05-07T21:06:40.792Z,52.10
2018-05-07T21:09:08.102Z,52.50
2018-05-07T21:11:34.577Z,52.90
2018-05-07T21:14:01.586Z,54.10
2018-05-07T21:16:27.992Z,54.10
2018-05-07T21:18:55.006Z,56.30
2018-05-07T21:21:21.248Z,56.30
2018-05-07T21:23:47.656Z,55.30
2018-05-07T21:26:13.929Z,55.30
2018-05-07T21:28:40.170Z,55.60
2018-05-07T21:31:06.410Z,55.60
2018-05-07T21:33:33.370Z,56.20
2018-05-07T21:35:59.630Z,56.20
2018-05-07T21:38:25.966Z,56.50
2018-05-07T21:40:52.206Z,56.60
2018-05-07T21:43:18.460Z,56.80
2018-05-07T21:45:44.685Z,57.00
2018-05-07T21:48:10.937Z,57.10
2018-05-07T21:50:37.346Z,57.90
2018-05-07T21:53:03.572Z,58.00
2018-05-07T21:55:29.778Z,58.30
2018-05-07T21:57:56.067Z,58.60
2018-05-07T22:00:22.357Z,59.10
2018-05-07T22:02:48.595Z,59.00
2018-05-07T22:05:15.590Z,59.80
2018-05-07T22:07:42.933Z,59.40
2018-05-07T22:10:09.237Z,59.50
2018-05-07T22:12:35.499Z,63.70
2018-05-07T22:15:01.829Z,62.50
2018-05-07T22:17:28.036Z,60.30
2018-05-07T22:19:54.380Z,60.20
2018-05-07T22:22:20.735Z,60.70
2018-05-07T22:24:47.177Z,63.60
2018-05-07T22:27:13.580Z,64.80
2018-05-07T22:29:40.657Z,62.90
2018-05-07T22:32:07.073Z,62.80
2018-05-07T22:34:33.438Z,64.30
2018-05-07T22:36:59.830Z,63.10
2018-05-07T22:39:26.203Z,63.20
2018-05-07T22:41:53.302Z,64.20
2018-05-07T22:44:19.751Z,64.20
2018-05-07T22:46:46.135Z,68.80
2018-05-07T22:49:12.621Z,66.50
2018-05-07T22:51:39.055Z,69.60
2018-05-07T22:54:07.129Z,67.60
2018-05-07T22:56:33.625Z,67.60
2018-05-07T22:58:59.933Z,65.20
2018-05-07T23:01:27.091Z,69.70
2018-05-07T23:03:55.258Z,67.70
2018-05-07T23:06:23.516Z,66.90
2018-05-07T23:08:49.945Z,67.50
2018-05-07T23:11:16.295Z,66.20
2018-05-07T23:13:42.815Z,69.90
2018-05-07T23:16:09.241Z,70.30
2018-05-07T23:18:36.359Z,67.20
2018-05-07T23:21:02.731Z,67.20
2018-05-07T23:23:29.096Z,66.20
2018-05-07T23:25:56.267Z,69.40
2018-05-07T23:28:23.415Z,66.60
2018-05-07T23:30:49.727Z,66.40
2018-05-07T23:33:16.175Z,67.70
2018-05-07T23:35:42.873Z,72.90
2018-05-07T23:38:09.316Z,69.80
2018-05-07T23:40:36.495Z,71.10
2018-05-07T23:43:03.003Z,71.30
2018-05-07T23:45:29.404Z,71.90
2018-05-07T23:47:55.837Z,67.00
2018-05-07T23:50:22.285Z,72.80
2018-05-07T23:52:48.736Z,71.50
2018-05-07T23:55:15.103Z,73.90
2018-05-07T23:57:41.667Z,72.40
